sensor_id;sensor_type;location;lat;lon;timestamp;pressure;altitude;pressure_sealevel;temperature;humidity
78383;BME280;67668;52.294;4.692;2023-03-04T00:01:18;102832.50;;;7.63;66.79
78383;BME280;67668;52.294;4.692;2023-03-04T00:03:43;102833.38;;;7.64;67.27
78383;BME280;67668;52.294;4.692;2023-03-04T00:06:08;102836.00;;;7.64;66.90
78383;BME280;67668;52.294;4.692;2023-03-04T00:08:34;102830.75;;;7.64;67.11
78383;BME280;67668;52.294;4.692;2023-03-04T00:10:59;102828.03;;;7.65;67.78
78383;BME280;67668;52.294;4.692;2023-03-04T00:13:25;102827.19;;;7.65;66.51
78383;BME280;67668;52.294;4.692;2023-03-04T00:15:50;102836.00;;;7.64;66.53
78383;BME280;67668;52.294;4.692;2023-03-04T00:18:16;102833.53;;;7.61;66.61
78383;BME280;67668;52.294;4.692;2023-03-04T00:20:41;102839.81;;;7.58;67.17
78383;BME280;67668;52.294;4.692;2023-03-04T00:23:07;102837.16;;;7.58;67.53
78383;BME280;67668;52.294;4.692;2023-03-04T00:25:32;102836.31;;;7.58;67.25
78383;BME280;67668;52.294;4.692;2023-03-04T00:27:58;102839.72;;;7.60;68.24
78383;BME280;67668;52.294;4.692;2023-03-04T00:30:25;102841.50;;;7.59;66.74
78383;BME280;67668;52.294;4.692;2023-03-04T00:32:50;102838.84;;;7.59;66.86
78383;BME280;67668;52.294;4.692;2023-03-04T00:35:16;102830.25;;;7.56;65.08
78383;BME280;67668;52.294;4.692;2023-03-04T00:37:41;102825.22;;;7.51;66.56
78383;BME280;67668;52.294;4.692;2023-03-04T00:40:07;102825.34;;;7.48;66.11
78383;BME280;67668;52.294;4.692;2023-03-04T00:42:33;102825.41;;;7.47;66.12
78383;BME280;67668;52.294;4.692;2023-03-04T00:44:58;102821.94;;;7.46;65.98
78383;BME280;67668;52.294;4.692;2023-03-04T00:47:24;102820.09;;;7.48;67.41
78383;BME280;67668;52.294;4.692;2023-03-04T00:49:49;102828.75;;;7.50;67.83
78383;BME280;67668;52.294;4.692;2023-03-04T00:52:14;102835.75;;;7.51;66.36
78383;BME280;67668;52.294;4.692;2023-03-04T00:54:40;102835.75;;;7.51;66.82
78383;BME280;67668;52.294;4.692;2023-03-04T00:57:05;102833.97;;;7.52;66.78
78383;BME280;67668;52.294;4.692;2023-03-04T00:59:31;102834.84;;;7.52;66.59
78383;BME280;67668;52.294;4.692;2023-03-04T01:04:31;102830.34;;;7.54;67.92
78383;BME280;67668;52.294;4.692;2023-03-04T01:06:57;102831.19;;;7.55;67.36
78383;BME280;67668;52.294;4.692;2023-03-04T01:09:22;102836.47;;;7.55;66.79
78383;BME280;67668;52.294;4.692;2023-03-04T01:11:47;102832.19;;;7.52;66.54
78383;BME280;67668;52.294;4.692;2023-03-04T01:14:13;102835.66;;;7.53;66.34
78383;BME280;67668;52.294;4.692;2023-03-04T01:16:38;102833.88;;;7.53;66.94
78383;BME280;67668;52.294;4.692;2023-03-04T01:19:04;102824.28;;;7.52;66.24
78383;BME280;67668;52.294;4.692;2023-03-04T01:21:29;102827.84;;;7.51;66.87
78383;BME280;67668;52.294;4.692;2023-03-04T01:23:54;102825.28;;;7.50;67.56
78383;BME280;67668;52.294;4.692;2023-03-04T01:26:20;102821.72;;;7.51;66.56
78383;BME280;67668;52.294;4.692;2023-03-04T01:28:45;102814.66;;;7.51;67.46
78383;BME280;67668;52.294;4.692;2023-03-04T01:31:10;102820.81;;;7.52;66.99
78383;BME280;67668;52.294;4.692;2023-03-04T01:33:36;102809.41;;;7.51;67.31
78383;BME280;67668;52.294;4.692;2023-03-04T01:36:02;102813.81;;;7.51;66.20
78383;BME280;67668;52.294;4.692;2023-03-04T01:38:27;102806.81;;;7.50;66.48
78383;BME280;67668;52.294;4.692;2023-03-04T01:40:53;102802.41;;;7.50;67.50
78383;BME280;67668;52.294;4.692;2023-03-04T01:43:21;102807.78;;;7.49;65.62
78383;BME280;67668;52.294;4.692;2023-03-04T01:45:49;102803.34;;;7.49;67.51
78383;BME280;67668;52.294;4.692;2023-03-04T01:48:18;102804.28;;;7.48;66.04
78383;BME280;67668;52.294;4.692;2023-03-04T01:50:45;102798.22;;;7.46;66.31
78383;BME280;67668;52.294;4.692;2023-03-04T01:53:18;102792.19;;;7.44;66.45
78383;BME280;67668;52.294;4.692;2023-03-04T01:55:44;102787.81;;;7.43;67.64
78383;BME280;67668;52.294;4.692;2023-03-04T01:58:11;102790.31;;;7.46;67.44
78383;BME280;67668;52.294;4.692;2023-03-04T02:00:36;102788.63;;;7.45;65.75
78383;BME280;67668;52.294;4.692;2023-03-04T02:03:05;102786.06;;;7.44;66.67
78383;BME280;67668;52.294;4.692;2023-03-04T02:05:32;102780.88;;;7.42;67.14
78383;BME280;67668;52.294;4.692;2023-03-04T02:07:57;102770.34;;;7.42;66.63
78383;BME280;67668;52.294;4.692;2023-03-04T02:10:25;102775.59;;;7.42;67.31
78383;BME280;67668;52.294;4.692;2023-03-04T02:12:51;102766.69;;;7.45;67.33
78383;BME280;67668;52.294;4.692;2023-03-04T02:15:16;102762.28;;;7.45;67.16
78383;BME280;67668;52.294;4.692;2023-03-04T02:17:42;102760.47;;;7.46;66.18
78383;BME280;67668;52.294;4.692;2023-03-04T02:20:27;102757.94;;;7.44;67.08
78383;BME280;67668;52.294;4.692;2023-03-04T02:23:15;102762.28;;;7.45;67.04
78383;BME280;67668;52.294;4.692;2023-03-04T02:25:51;102756.16;;;7.45;67.21
78383;BME280;67668;52.294;4.692;2023-03-04T02:28:19;102750.03;;;7.44;67.05
78383;BME280;67668;52.294;4.692;2023-03-04T02:30:45;102749.19;;;7.44;66.55
78383;BME280;67668;52.294;4.692;2023-03-04T02:33:15;102742.19;;;7.43;66.55
78383;BME280;67668;52.294;4.692;2023-03-04T02:35:41;102739.56;;;7.43;66.23
78383;BME280;67668;52.294;4.692;2023-03-04T02:38:08;102737.00;;;7.41;66.25
78383;BME280;67668;52.294;4.692;2023-03-04T02:40:34;102737.78;;;7.43;67.37
78383;BME280;67668;52.294;4.692;2023-03-04T02:43:00;102740.41;;;7.43;67.17
78383;BME280;67668;52.294;4.692;2023-03-04T02:45:38;102733.31;;;7.45;67.01
78383;BME280;67668;52.294;4.692;2023-03-04T02:48:05;102724.53;;;7.45;66.81
78383;BME280;67668;52.294;4.692;2023-03-04T02:50:36;102726.22;;;7.46;66.34
78383;BME280;67668;52.294;4.692;2023-03-04T02:53:03;102731.75;;;7.41;65.59
78383;BME280;67668;52.294;4.692;2023-03-04T02:55:28;102730.03;;;7.40;66.52
78383;BME280;67668;52.294;4.692;2023-03-04T02:57:53;102722.97;;;7.41;67.13
78383;BME280;67668;52.294;4.692;2023-03-04T03:00:19;102724.00;;;7.38;65.97
78383;BME280;67668;52.294;4.692;2023-03-04T03:02:44;102724.16;;;7.35;67.52
78383;BME280;67668;52.294;4.692;2023-03-04T03:05:10;102726.78;;;7.35;66.83
78383;BME280;67668;52.294;4.692;2023-03-04T03:07:36;102720.66;;;7.35;66.54
78383;BME280;67668;52.294;4.692;2023-03-04T03:10:02;102723.50;;;7.30;67.47
78383;BME280;67668;52.294;4.692;2023-03-04T03:12:28;102723.44;;;7.32;67.82
78383;BME280;67668;52.294;4.692;2023-03-04T03:14:53;102719.84;;;7.33;67.00
78383;BME280;67668;52.294;4.692;2023-03-04T03:17:18;102721.56;;;7.34;67.28
78383;BME280;67668;52.294;4.692;2023-03-04T03:19:44;102713.63;;;7.35;67.33
78383;BME280;67668;52.294;4.692;2023-03-04T03:22:09;102723.13;;;7.38;67.35
78383;BME280;67668;52.294;4.692;2023-03-04T03:24:34;102719.59;;;7.39;67.16
78383;BME280;67668;52.294;4.692;2023-03-04T03:26:59;102715.13;;;7.39;66.16
78383;BME280;67668;52.294;4.692;2023-03-04T03:29:25;102716.25;;;7.35;66.85
78383;BME280;67668;52.294;4.692;2023-03-04T03:31:51;102713.75;;;7.32;66.46
78383;BME280;67668;52.294;4.692;2023-03-04T03:34:16;102717.47;;;7.28;66.57
78383;BME280;67668;52.294;4.692;2023-03-04T03:36:41;102719.31;;;7.26;67.87
78383;BME280;67668;52.294;4.692;2023-03-04T03:39:06;102719.31;;;7.26;67.71
78383;BME280;67668;52.294;4.692;2023-03-04T03:41:32;102721.94;;;7.26;67.52
78383;BME280;67668;52.294;4.692;2023-03-04T03:43:57;102719.31;;;7.26;67.42
78383;BME280;67668;52.294;4.692;2023-03-04T03:46:22;102720.25;;;7.25;66.40
78383;BME280;67668;52.294;4.692;2023-03-04T03:48:48;102720.41;;;7.22;67.65
78383;BME280;67668;52.294;4.692;2023-03-04T03:51:13;102721.31;;;7.21;67.38
78383;BME280;67668;52.294;4.692;2023-03-04T03:53:38;102713.41;;;7.21;66.72
78383;BME280;67668;52.294;4.692;2023-03-04T03:56:04;102717.91;;;7.19;66.21
78383;BME280;67668;52.294;4.692;2023-03-04T03:58:30;102717.91;;;7.19;67.78
78383;BME280;67668;52.294;4.692;2023-03-04T04:00:55;102713.34;;;7.22;67.69
78383;BME280;67668;52.294;4.692;2023-03-04T04:03:20;102715.13;;;7.22;66.25
78383;BME280;67668;52.294;4.692;2023-03-04T04:05:46;102710.78;;;7.21;67.27
78383;BME280;67668;52.294;4.692;2023-03-04T04:08:15;102718.59;;;7.22;67.40
78383;BME280;67668;52.294;4.692;2023-03-04T04:10:42;102720.25;;;7.25;67.52
78383;BME280;67668;52.294;4.692;2023-03-04T04:13:08;102719.31;;;7.26;67.90
78383;BME280;67668;52.294;4.692;2023-03-04T04:15:34;102716.56;;;7.29;67.59
78383;BME280;67668;52.294;4.692;2023-03-04T04:18:01;102713.06;;;7.28;67.51
78383;BME280;67668;52.294;4.692;2023-03-04T04:20:26;102710.44;;;7.28;67.17
78383;BME280;67668;52.294;4.692;2023-03-04T04:22:52;102711.28;;;7.29;67.53
78383;BME280;67668;52.294;4.692;2023-03-04T04:25:17;102716.47;;;7.31;67.49
78383;BME280;67668;52.294;4.692;2023-03-04T04:27:43;102715.44;;;7.33;68.22
78383;BME280;67668;52.294;4.692;2023-03-04T04:30:09;102704.06;;;7.33;67.86
78383;BME280;67668;52.294;4.692;2023-03-04T04:32:34;102706.63;;;7.34;68.68
78383;BME280;67668;52.294;4.692;2023-03-04T04:35:00;102703.06;;;7.35;67.57
78383;BME280;67668;52.294;4.692;2023-03-04T04:37:25;102708.25;;;7.37;68.02
78383;BME280;67668;52.294;4.692;2023-03-04T04:39:50;102698.66;;;7.36;68.43
78383;BME280;67668;52.294;4.692;2023-03-04T04:42:17;102707.34;;;7.38;67.83
78383;BME280;67668;52.294;4.692;2023-03-04T04:44:42;102705.72;;;7.35;67.90
78383;BME280;67668;52.294;4.692;2023-03-04T04:47:08;102707.38;;;7.36;67.81
78383;BME280;67668;52.294;4.692;2023-03-04T04:49:34;102705.63;;;7.37;68.04
78383;BME280;67668;52.294;4.692;2023-03-04T04:51:59;102713.47;;;7.38;67.92
78383;BME280;67668;52.294;4.692;2023-03-04T04:54:24;102711.75;;;7.37;67.62
78383;BME280;67668;52.294;4.692;2023-03-04T04:56:50;102711.91;;;7.34;67.81
78383;BME280;67668;52.294;4.692;2023-03-04T04:59:15;102712.97;;;7.30;66.82
78383;BME280;67668;52.294;4.692;2023-03-04T05:01:40;102711.34;;;7.27;68.23
78383;BME280;67668;52.294;4.692;2023-03-04T05:04:06;102714.84;;;7.28;68.90
78383;BME280;67668;52.294;4.692;2023-03-04T05:06:31;102721.81;;;7.29;68.66
78383;BME280;67668;52.294;4.692;2023-03-04T05:08:57;102716.47;;;7.31;68.23
78383;BME280;67668;52.294;4.692;2023-03-04T05:11:23;102718.09;;;7.33;69.39
78383;BME280;67668;52.294;4.692;2023-03-04T05:13:48;102728.63;;;7.33;69.11
78383;BME280;67668;52.294;4.692;2023-03-04T05:16:15;102726.84;;;7.34;68.55
78383;BME280;67668;52.294;4.692;2023-03-04T05:18:40;102720.72;;;7.33;68.81
78383;BME280;67668;52.294;4.692;2023-03-04T05:21:06;102725.22;;;7.31;68.48
78383;BME280;67668;52.294;4.692;2023-03-04T05:23:34;102726.94;;;7.32;69.27
78383;BME280;67668;52.294;4.692;2023-03-04T05:26:00;102729.56;;;7.32;68.78
78383;BME280;67668;52.294;4.692;2023-03-04T05:28:25;102725.13;;;7.33;68.23
78383;BME280;67668;52.294;4.692;2023-03-04T05:30:51;102724.50;;;7.27;68.02
78383;BME280;67668;52.294;4.692;2023-03-04T05:33:16;102724.66;;;7.24;68.65
78383;BME280;67668;52.294;4.692;2023-03-04T05:35:43;102716.81;;;7.23;69.19
78383;BME280;67668;52.294;4.692;2023-03-04T05:38:11;102715.91;;;7.24;68.32
78383;BME280;67668;52.294;4.692;2023-03-04T05:40:37;102716.91;;;7.21;67.87
78383;BME280;67668;52.294;4.692;2023-03-04T05:43:03;102714.34;;;7.20;67.90
78383;BME280;67668;52.294;4.692;2023-03-04T05:45:28;102714.34;;;7.20;68.86
78383;BME280;67668;52.294;4.692;2023-03-04T05:47:54;102713.41;;;7.21;68.91
78383;BME280;67668;52.294;4.692;2023-03-04T05:50:20;102713.34;;;7.22;68.87
78383;BME280;67668;52.294;4.692;2023-03-04T05:52:46;102712.34;;;7.25;69.02
78383;BME280;67668;52.294;4.692;2023-03-04T05:55:12;102711.34;;;7.27;68.49
78383;BME280;67668;52.294;4.692;2023-03-04T05:57:37;102714.75;;;7.29;68.51
78383;BME280;67668;52.294;4.692;2023-03-04T06:00:03;102718.22;;;7.30;68.66
78383;BME280;67668;52.294;4.692;2023-03-04T06:02:30;102709.47;;;7.29;68.11
78383;BME280;67668;52.294;4.692;2023-03-04T06:04:55;102714.69;;;7.31;67.92
78383;BME280;67668;52.294;4.692;2023-03-04T06:07:21;102707.69;;;7.30;67.45
78383;BME280;67668;52.294;4.692;2023-03-04T06:09:46;102704.16;;;7.31;67.16
78383;BME280;67668;52.294;4.692;2023-03-04T06:12:11;102712.03;;;7.31;67.97
78383;BME280;67668;52.294;4.692;2023-03-04T06:14:38;102706.78;;;7.31;67.36
78383;BME280;67668;52.294;4.692;2023-03-04T06:17:03;102707.63;;;7.32;67.24
78383;BME280;67668;52.294;4.692;2023-03-04T06:19:29;102713.75;;;7.32;68.13
78383;BME280;67668;52.294;4.692;2023-03-04T06:21:54;102712.91;;;7.32;66.90
78383;BME280;67668;52.294;4.692;2023-03-04T06:24:19;102711.19;;;7.31;67.69
78383;BME280;67668;52.294;4.692;2023-03-04T06:26:51;102705.16;;;7.28;67.29
78383;BME280;67668;52.294;4.692;2023-03-04T06:29:16;102712.19;;;7.28;67.54
78383;BME280;67668;52.294;4.692;2023-03-04T06:31:41;102713.13;;;7.27;68.12
78383;BME280;67668;52.294;4.692;2023-03-04T06:34:07;102720.25;;;7.25;67.80
78383;BME280;67668;52.294;4.692;2023-03-04T06:36:33;102720.25;;;7.25;68.29
78383;BME280;67668;52.294;4.692;2023-03-04T06:38:58;102717.63;;;7.25;67.40
78383;BME280;67668;52.294;4.692;2023-03-04T06:41:23;102726.44;;;7.24;68.21
78383;BME280;67668;52.294;4.692;2023-03-04T06:43:49;102722.88;;;7.25;68.88
78383;BME280;67668;52.294;4.692;2023-03-04T06:46:17;102731.56;;;7.27;68.69
78383;BME280;67668;52.294;4.692;2023-03-04T06:48:42;102741.16;;;7.28;69.53
78383;BME280;67668;52.294;4.692;2023-03-04T06:51:09;102735.81;;;7.29;69.35
78383;BME280;67668;52.294;4.692;2023-03-04T06:53:37;102731.50;;;7.28;68.95
78383;BME280;67668;52.294;4.692;2023-03-04T06:56:03;102741.06;;;7.29;69.62
78383;BME280;67668;52.294;4.692;2023-03-04T06:58:29;102739.31;;;7.30;69.55
78383;BME280;67668;52.294;4.692;2023-03-04T07:00:55;102741.94;;;7.30;70.10
78383;BME280;67668;52.294;4.692;2023-03-04T07:03:20;102741.94;;;7.30;69.85
78383;BME280;67668;52.294;4.692;2023-03-04T07:05:46;102741.06;;;7.29;70.35
78383;BME280;67668;52.294;4.692;2023-03-04T07:08:11;102738.38;;;7.31;69.95
78383;BME280;67668;52.294;4.692;2023-03-04T07:10:36;102745.38;;;7.32;70.73
78383;BME280;67668;52.294;4.692;2023-03-04T07:13:02;102736.53;;;7.33;70.34
78383;BME280;67668;52.294;4.692;2023-03-04T07:15:27;102732.91;;;7.36;70.83
78383;BME280;67668;52.294;4.692;2023-03-04T07:17:53;102734.59;;;7.37;70.77
78383;BME280;67668;52.294;4.692;2023-03-04T07:20:18;102732.81;;;7.37;70.57
78383;BME280;67668;52.294;4.692;2023-03-04T07:22:44;102739.78;;;7.38;70.47
78383;BME280;67668;52.294;4.692;2023-03-04T07:25:10;102744.06;;;7.41;70.87
78383;BME280;67668;52.294;4.692;2023-03-04T07:27:35;102745.78;;;7.42;70.69
78383;BME280;67668;52.294;4.692;2023-03-04T07:30:04;102742.28;;;7.41;71.26
78383;BME280;67668;52.294;4.692;2023-03-04T07:32:29;102740.41;;;7.43;70.96
78383;BME280;67668;52.294;4.692;2023-03-04T07:34:55;102746.47;;;7.45;71.49
78383;BME280;67668;52.294;4.692;2023-03-04T07:37:20;102754.28;;;7.47;71.50
78383;BME280;67668;52.294;4.692;2023-03-04T07:39:45;102749.88;;;7.47;70.60
78383;BME280;67668;52.294;4.692;2023-03-04T07:42:11;102754.22;;;7.48;70.97
78383;BME280;67668;52.294;4.692;2023-03-04T07:44:36;102759.50;;;7.48;71.13
78383;BME280;67668;52.294;4.692;2023-03-04T07:47:01;102758.53;;;7.49;70.94
78383;BME280;67668;52.294;4.692;2023-03-04T07:49:27;102762.84;;;7.52;71.14
78383;BME280;67668;52.294;4.692;2023-03-04T07:51:52;102754.06;;;7.51;71.35
78383;BME280;67668;52.294;4.692;2023-03-04T07:54:17;102754.06;;;7.51;71.88
78383;BME280;67668;52.294;4.692;2023-03-04T07:56:44;102753.16;;;7.52;72.32
78383;BME280;67668;52.294;4.692;2023-03-04T07:59:10;102759.19;;;7.54;71.79
78383;BME280;67668;52.294;4.692;2023-03-04T08:01:36;102760.06;;;7.55;71.97
78383;BME280;67668;52.294;4.692;2023-03-04T08:04:04;102754.69;;;7.56;72.11
78383;BME280;67668;52.294;4.692;2023-03-04T08:06:30;102757.25;;;7.58;72.05
78383;BME280;67668;52.294;4.692;2023-03-04T08:08:59;102760.66;;;7.60;72.33
78383;BME280;67668;52.294;4.692;2023-03-04T08:11:27;102767.66;;;7.61;72.21
78383;BME280;67668;52.294;4.692;2023-03-04T08:13:53;102760.66;;;7.60;72.16
78383;BME280;67668;52.294;4.692;2023-03-04T08:16:20;102773.78;;;7.61;72.10
78383;BME280;67668;52.294;4.692;2023-03-04T08:18:49;102765.00;;;7.61;72.55
78383;BME280;67668;52.294;4.692;2023-03-04T08:21:17;102763.22;;;7.61;72.82
78383;BME280;67668;52.294;4.692;2023-03-04T08:23:44;102766.63;;;7.63;72.55
78383;BME280;67668;52.294;4.692;2023-03-04T08:26:17;102762.16;;;7.65;72.83
78383;BME280;67668;52.294;4.692;2023-03-04T08:28:44;102762.06;;;7.67;72.97
78383;BME280;67668;52.294;4.692;2023-03-04T08:31:12;102764.66;;;7.68;73.32
78383;BME280;67668;52.294;4.692;2023-03-04T08:33:37;102762.78;;;7.70;73.22
78383;BME280;67668;52.294;4.692;2023-03-04T08:36:02;102767.03;;;7.73;73.03
78383;BME280;67668;52.294;4.692;2023-03-04T08:38:28;102762.63;;;7.73;72.58
78383;BME280;67668;52.294;4.692;2023-03-04T08:40:54;102767.72;;;7.76;72.94
78383;BME280;67668;52.294;4.692;2023-03-04T08:43:20;102774.63;;;7.79;73.20
78383;BME280;67668;52.294;4.692;2023-03-04T08:45:46;102769.28;;;7.80;73.03
78383;BME280;67668;52.294;4.692;2023-03-04T08:48:11;102771.88;;;7.82;72.93
78383;BME280;67668;52.294;4.692;2023-03-04T08:50:36;102767.34;;;7.84;73.15
78383;BME280;67668;52.294;4.692;2023-03-04T08:53:02;102768.13;;;7.86;73.42
78383;BME280;67668;52.294;4.692;2023-03-04T08:55:27;102766.34;;;7.87;73.17
78383;BME280;67668;52.294;4.692;2023-03-04T08:57:52;102775.97;;;7.88;73.92
78383;BME280;67668;52.294;4.692;2023-03-04T09:00:18;102767.91;;;7.91;73.32
78383;BME280;67668;52.294;4.692;2023-03-04T09:02:45;102769.63;;;7.92;73.89
78383;BME280;67668;52.294;4.692;2023-03-04T09:05:10;102763.41;;;7.93;73.54
78383;BME280;67668;52.294;4.692;2023-03-04T09:07:35;102764.19;;;7.95;73.03
78383;BME280;67668;52.294;4.692;2023-03-04T09:10:01;102766.66;;;7.98;73.69
78383;BME280;67668;52.294;4.692;2023-03-04T09:12:26;102755.97;;;8.01;74.66
78383;BME280;67668;52.294;4.692;2023-03-04T09:14:51;102764.63;;;8.03;73.99
78383;BME280;67668;52.294;4.692;2023-03-04T09:17:17;102759.28;;;8.04;73.05
78383;BME280;67668;52.294;4.692;2023-03-04T09:19:42;102759.91;;;8.09;73.78
78383;BME280;67668;52.294;4.692;2023-03-04T09:22:07;102765.88;;;8.13;73.47
78383;BME280;67668;52.294;4.692;2023-03-04T09:24:33;102755.16;;;8.16;73.14
78383;BME280;67668;52.294;4.692;2023-03-04T09:26:58;102771.84;;;8.16;73.61
78383;BME280;67668;52.294;4.692;2023-03-04T09:29:23;102762.00;;;8.20;73.37
78383;BME280;67668;52.294;4.692;2023-03-04T09:31:49;102774.25;;;8.21;73.51
78383;BME280;67668;52.294;4.692;2023-03-04T09:34:15;102769.75;;;8.23;74.43
78383;BME280;67668;52.294;4.692;2023-03-04T09:36:42;102766.19;;;8.24;73.40
78383;BME280;67668;52.294;4.692;2023-03-04T09:39:07;102759.97;;;8.25;73.77
78383;BME280;67668;52.294;4.692;2023-03-04T09:41:35;102759.84;;;8.28;74.39
78383;BME280;67668;52.294;4.692;2023-03-04T09:44:26;102760.72;;;8.28;73.86
78383;BME280;67668;52.294;4.692;2023-03-04T09:46:50;102751.06;;;8.27;74.27
78383;BME280;67668;52.294;4.692;2023-03-04T09:49:18;102750.97;;;8.29;74.79
78383;BME280;67668;52.294;4.692;2023-03-04T09:56:42;102749.91;;;8.33;74.23
78383;BME280;67668;52.294;4.692;2023-03-04T10:01:47;102746.00;;;8.40;74.02
78383;BME280;67668;52.294;4.692;2023-03-04T10:04:28;102744.91;;;8.44;74.37
78383;BME280;67668;52.294;4.692;2023-03-04T10:06:55;102750.97;;;8.46;74.34
78383;BME280;67668;52.294;4.692;2023-03-04T10:09:25;102732.25;;;8.51;74.39
78383;BME280;67668;52.294;4.692;2023-03-04T10:12:08;102737.44;;;8.52;73.98
78383;BME280;67668;52.294;4.692;2023-03-04T10:14:57;102732.94;;;8.54;73.91
78383;BME280;67668;52.294;4.692;2023-03-04T10:17:39;102725.72;;;8.58;74.44
78383;BME280;67668;52.294;4.692;2023-03-04T10:20:18;102738.63;;;8.62;74.06
78383;BME280;67668;52.294;4.692;2023-03-04T10:22:47;102738.47;;;8.65;73.79
78383;BME280;67668;52.294;4.692;2023-03-04T10:25:23;102742.75;;;8.68;73.31
78383;BME280;67668;52.294;4.692;2023-03-04T10:28:15;102745.22;;;8.71;73.90
78383;BME280;67668;52.294;4.692;2023-03-04T10:33:43;102737.16;;;8.74;73.36
78383;BME280;67668;52.294;4.692;2023-03-04T10:38:37;102734.56;;;8.72;73.33
78383;BME280;67668;52.294;4.692;2023-03-04T10:41:20;102738.06;;;8.73;73.01
78383;BME280;67668;52.294;4.692;2023-03-04T10:46:41;102732.53;;;8.77;73.27
78383;BME280;67668;52.294;4.692;2023-03-04T10:49:09;102720.09;;;8.79;73.41
78383;BME280;67668;52.294;4.692;2023-03-04T10:51:47;102715.63;;;8.81;73.37
78383;BME280;67668;52.294;4.692;2023-03-04T10:54:26;102728.63;;;8.85;73.28
78383;BME280;67668;52.294;4.692;2023-03-04T10:57:04;102725.84;;;8.88;72.89
78383;BME280;67668;52.294;4.692;2023-03-04T10:59:47;102729.97;;;8.92;72.75
78383;BME280;67668;52.294;4.692;2023-03-04T11:02:34;102728.03;;;8.95;73.34
78383;BME280;67668;52.294;4.692;2023-03-04T11:05:26;102733.06;;;9.00;72.71
78383;BME280;67668;52.294;4.692;2023-03-04T11:07:59;102732.88;;;9.03;73.68
78383;BME280;67668;52.294;4.692;2023-03-04T11:10:37;102728.38;;;9.05;73.08
78383;BME280;67668;52.294;4.692;2023-03-04T11:13:23;102723.88;;;9.07;73.19
78383;BME280;67668;52.294;4.692;2023-03-04T11:16:04;102715.09;;;9.06;72.38
78383;BME280;67668;52.294;4.692;2023-03-04T11:19:22;102720.13;;;9.11;71.91
78383;BME280;67668;52.294;4.692;2023-03-04T11:21:40;102720.97;;;9.11;72.27
78383;BME280;67668;52.294;4.692;2023-03-04T11:24:22;102713.06;;;9.11;71.72
78383;BME280;67668;52.294;4.692;2023-03-04T11:27:14;102716.34;;;9.15;71.88
78383;BME280;67668;52.294;4.692;2023-03-04T11:32:21;102706.13;;;9.24;72.14
78383;BME280;67668;52.294;4.692;2023-03-04T11:35:00;102715.50;;;9.30;72.39
78383;BME280;67668;52.294;4.692;2023-03-04T11:37:36;102710.72;;;9.37;71.95
78383;BME280;67668;52.294;4.692;2023-03-04T11:40:09;102705.06;;;9.43;71.56
78383;BME280;67668;52.294;4.692;2023-03-04T11:42:54;102706.50;;;9.48;70.74
78383;BME280;67668;52.294;4.692;2023-03-04T11:45:32;102701.81;;;9.53;70.67
78383;BME280;67668;52.294;4.692;2023-03-04T11:50:50;102691.72;;;9.60;70.21
78383;BME280;67668;52.294;4.692;2023-03-04T11:53:24;102700.31;;;9.63;70.02
78383;BME280;67668;52.294;4.692;2023-03-04T12:10:24;102696.94;;;9.75;67.57
78383;BME280;67668;52.294;4.692;2023-03-04T12:13:18;102691.66;;;9.75;66.40
78383;BME280;67668;52.294;4.692;2023-03-04T12:19:01;102695.22;;;9.74;65.51
78383;BME280;67668;52.294;4.692;2023-03-04T12:22:06;102691.66;;;9.75;66.65
78383;BME280;67668;52.294;4.692;2023-03-04T12:25:02;102683.66;;;9.77;65.35
78383;BME280;67668;52.294;4.692;2023-03-04T12:33:42;102677.31;;;9.79;65.17
78383;BME280;67668;52.294;4.692;2023-03-04T12:45:13;102650.50;;;9.85;65.80
78383;BME280;67668;52.294;4.692;2023-03-04T12:47:53;102648.63;;;9.88;65.28
78383;BME280;67668;52.294;4.692;2023-03-04T12:50:35;102647.59;;;9.90;65.24
78383;BME280;67668;52.294;4.692;2023-03-04T12:56:22;102646.47;;;9.94;63.84
78383;BME280;67668;52.294;4.692;2023-03-04T12:58:51;102644.44;;;9.98;64.75
78383;BME280;67668;52.294;4.692;2023-03-04T13:01:33;102639.16;;;9.98;64.34
78383;BME280;67668;52.294;4.692;2023-03-04T13:09:34;102634.72;;;9.98;63.80
78383;BME280;67668;52.294;4.692;2023-03-04T13:12:15;102646.94;;;10.01;65.21
78383;BME280;67668;52.294;4.692;2023-03-04T13:17:37;102632.47;;;10.06;64.84
78383;BME280;67668;52.294;4.692;2023-03-04T13:20:21;102622.56;;;10.10;65.71
78383;BME280;67668;52.294;4.692;2023-03-04T13:28:21;102615.38;;;10.12;64.18
78383;BME280;67668;52.294;4.692;2023-03-04T13:36:00;102608.91;;;10.17;64.43
78383;BME280;67668;52.294;4.692;2023-03-04T13:43:40;102607.00;;;10.19;63.86
78383;BME280;67668;52.294;4.692;2023-03-04T13:56:35;102604.06;;;10.24;65.20
78383;BME280;67668;52.294;4.692;2023-03-04T14:04:00;102611.22;;;10.22;65.47
78383;BME280;67668;52.294;4.692;2023-03-04T14:06:27;102614.75;;;10.22;64.93
78383;BME280;67668;52.294;4.692;2023-03-04T14:08:55;102611.22;;;10.22;65.99
78383;BME280;67668;52.294;4.692;2023-03-04T14:11:27;102604.22;;;10.21;65.84
78383;BME280;67668;52.294;4.692;2023-03-04T14:13:56;102609.53;;;10.21;65.51
78383;BME280;67668;52.294;4.692;2023-03-04T14:16:26;102604.16;;;10.22;65.85
78383;BME280;67668;52.294;4.692;2023-03-04T14:18:56;102599.78;;;10.21;65.79
78383;BME280;67668;52.294;4.692;2023-03-04T14:21:22;102604.16;;;10.22;65.58
78383;BME280;67668;52.294;4.692;2023-03-04T14:24:02;102600.44;;;10.25;65.56
78383;BME280;67668;52.294;4.692;2023-03-04T14:26:28;102592.63;;;10.23;65.29
78383;BME280;67668;52.294;4.692;2023-03-04T14:28:55;102594.31;;;10.24;65.20
78383;BME280;67668;52.294;4.692;2023-03-04T14:31:28;102589.88;;;10.25;64.98
78383;BME280;67668;52.294;4.692;2023-03-04T14:33:55;102585.44;;;10.25;64.98
78383;BME280;67668;52.294;4.692;2023-03-04T14:36:27;102584.56;;;10.25;65.08
78383;BME280;67668;52.294;4.692;2023-03-04T14:39:00;102574.84;;;10.25;63.59
78383;BME280;67668;52.294;4.692;2023-03-04T14:41:36;102584.56;;;10.25;64.37
78383;BME280;67668;52.294;4.692;2023-03-04T14:44:29;102579.41;;;10.23;64.16
78383;BME280;67668;52.294;4.692;2023-03-04T14:47:08;102577.59;;;10.24;63.19